TAF KPSP
KPSP 081734Z 0818/0918 16005KT P6SM SCT090 SCT250 FM090300 33007KT P6SM SCT090=
METAR KPSP
WC KPSP
WS KPSP
WV KPSP